sensor_id;sensor_type;location;lat;lon;timestamp;pressure;altitude;pressure_sealevel;temperature;humidity
64551;BME280;50945;44.472;-123.352;2023-05-12T00:01:15;100552.56;;;24.64;50.27
64551;BME280;50945;44.472;-123.352;2023-05-12T00:03:41;100554.50;;;24.64;50.49
64551;BME280;50945;44.472;-123.352;2023-05-12T00:06:07;100545.25;;;24.58;50.58
64551;BME280;50945;44.472;-123.352;2023-05-12T00:08:33;100557.00;;;24.60;50.33
64551;BME280;50945;44.472;-123.352;2023-05-12T00:11:00;100554.19;;;24.60;49.89
64551;BME280;50945;44.472;-123.352;2023-05-12T00:13:26;100548.81;;;24.48;49.80
64551;BME280;50945;44.472;-123.352;2023-05-12T00:15:53;100547.13;;;24.47;50.47
64551;BME280;50945;44.472;-123.352;2023-05-12T00:18:21;100544.06;;;24.49;50.72
64551;BME280;50945;44.472;-123.352;2023-05-12T00:20:47;100544.06;;;24.49;50.69
64551;BME280;50945;44.472;-123.352;2023-05-12T00:23:14;100539.28;;;24.44;50.07
64551;BME280;50945;44.472;-123.352;2023-05-12T00:25:40;100547.94;;;24.38;50.18
64551;BME280;50945;44.472;-123.352;2023-05-12T00:28:06;100537.81;;;24.26;50.30
64551;BME280;50945;44.472;-123.352;2023-05-12T00:30:32;100535.22;;;24.09;46.52
64551;BME280;50945;44.472;-123.352;2023-05-12T00:32:59;100543.63;;;24.09;50.99
64551;BME280;50945;44.472;-123.352;2023-05-12T00:35:26;100544.34;;;23.95;50.73
64551;BME280;50945;44.472;-123.352;2023-05-12T00:37:51;100543.59;;;23.67;44.94
64551;BME280;50945;44.472;-123.352;2023-05-12T00:40:18;100550.47;;;23.59;51.03
64551;BME280;50945;44.472;-123.352;2023-05-12T00:42:44;100542.63;;;23.51;51.39
64551;BME280;50945;44.472;-123.352;2023-05-12T00:45:10;100547.78;;;23.37;49.92
64551;BME280;50945;44.472;-123.352;2023-05-12T00:47:36;100555.84;;;23.33;52.46
64551;BME280;50945;44.472;-123.352;2023-05-12T00:50:06;100545.22;;;23.30;51.34
64551;BME280;50945;44.472;-123.352;2023-05-12T00:52:33;100552.38;;;23.21;51.07
64551;BME280;50945;44.472;-123.352;2023-05-12T00:55:00;100552.53;;;23.09;50.90
64551;BME280;50945;44.472;-123.352;2023-05-12T00:57:28;100554.34;;;22.98;51.74
64551;BME280;50945;44.472;-123.352;2023-05-12T00:59:54;100553.41;;;22.88;50.97
64551;BME280;50945;44.472;-123.352;2023-05-12T01:02:21;100556.13;;;22.83;51.48
64551;BME280;50945;44.472;-123.352;2023-05-12T01:04:48;100552.19;;;22.78;51.75
64551;BME280;50945;44.472;-123.352;2023-05-12T01:07:19;100560.22;;;22.75;51.67
64551;BME280;50945;44.472;-123.352;2023-05-12T01:09:46;100554.91;;;22.73;51.39
64551;BME280;50945;44.472;-123.352;2023-05-12T01:12:19;100555.72;;;22.69;51.81
64551;BME280;50945;44.472;-123.352;2023-05-12T01:14:46;100566.53;;;22.65;51.70
64551;BME280;50945;44.472;-123.352;2023-05-12T01:17:13;100564.72;;;22.54;51.51
64551;BME280;50945;44.472;-123.352;2023-05-12T01:19:56;100567.38;;;22.44;50.62
64551;BME280;50945;44.472;-123.352;2023-05-12T01:22:24;100562.84;;;22.37;52.19
64551;BME280;50945;44.472;-123.352;2023-05-12T01:24:56;100557.72;;;22.29;52.28
64551;BME280;50945;44.472;-123.352;2023-05-12T01:27:23;100556.03;;;22.11;50.40
64551;BME280;50945;44.472;-123.352;2023-05-12T01:29:51;100558.16;;;22.04;52.51
64551;BME280;50945;44.472;-123.352;2023-05-12T01:32:20;100557.19;;;21.93;52.82
64551;BME280;50945;44.472;-123.352;2023-05-12T01:34:46;100560.66;;;21.83;52.91
64551;BME280;50945;44.472;-123.352;2023-05-12T01:37:13;100563.53;;;21.72;53.46
64551;BME280;50945;44.472;-123.352;2023-05-12T01:39:39;100564.81;;;21.64;53.44
64551;BME280;50945;44.472;-123.352;2023-05-12T01:42:05;100552.22;;;21.44;52.13
64551;BME280;50945;44.472;-123.352;2023-05-12T01:44:33;100557.09;;;21.37;53.90
64551;BME280;50945;44.472;-123.352;2023-05-12T01:46:59;100560.28;;;21.29;54.25
64551;BME280;50945;44.472;-123.352;2023-05-12T01:49:26;100551.75;;;21.19;54.62
64551;BME280;50945;44.472;-123.352;2023-05-12T01:51:53;100557.91;;;21.04;54.48
64551;BME280;50945;44.472;-123.352;2023-05-12T01:54:18;100550.84;;;20.84;54.03
64551;BME280;50945;44.472;-123.352;2023-05-12T01:56:45;100557.91;;;20.75;54.73
64551;BME280;50945;44.472;-123.352;2023-05-12T01:59:11;100561.06;;;20.55;54.19
64551;BME280;50945;44.472;-123.352;2023-05-12T02:01:37;100562.16;;;20.54;55.55
64551;BME280;50945;44.472;-123.352;2023-05-12T02:04:03;100555.56;;;20.43;55.85
64551;BME280;50945;44.472;-123.352;2023-05-12T02:06:30;100554.09;;;20.41;55.98
64551;BME280;50945;44.472;-123.352;2023-05-12T02:08:57;100557.28;;;20.32;55.62
64551;BME280;50945;44.472;-123.352;2023-05-12T02:11:25;100558.34;;;20.31;55.61
64551;BME280;50945;44.472;-123.352;2023-05-12T02:13:51;100554.38;;;20.27;55.91
64551;BME280;50945;44.472;-123.352;2023-05-12T02:16:17;100561.88;;;20.15;56.41
64551;BME280;50945;44.472;-123.352;2023-05-12T02:18:43;100556.81;;;20.12;56.48
64551;BME280;50945;44.472;-123.352;2023-05-12T02:21:09;100554.16;;;20.05;56.70
64551;BME280;50945;44.472;-123.352;2023-05-12T02:23:35;100554.78;;;19.96;57.01
64551;BME280;50945;44.472;-123.352;2023-05-12T02:26:02;100562.63;;;19.87;57.11
64551;BME280;50945;44.472;-123.352;2023-05-12T02:28:28;100562.50;;;19.82;57.35
64551;BME280;50945;44.472;-123.352;2023-05-12T02:30:54;100556.91;;;19.70;57.09
64551;BME280;50945;44.472;-123.352;2023-05-12T02:33:22;100562.84;;;19.62;57.09
64551;BME280;50945;44.472;-123.352;2023-05-12T02:35:48;100567.03;;;19.52;57.14
64551;BME280;50945;44.472;-123.352;2023-05-12T02:38:14;100562.78;;;19.38;57.31
64551;BME280;50945;44.472;-123.352;2023-05-12T02:40:41;100566.16;;;19.28;57.68
64551;BME280;50945;44.472;-123.352;2023-05-12T02:43:07;100570.22;;;19.14;58.07
64551;BME280;50945;44.472;-123.352;2023-05-12T02:45:35;100573.91;;;19.08;57.67
64551;BME280;50945;44.472;-123.352;2023-05-12T02:48:01;100571.81;;;18.91;58.06
64551;BME280;50945;44.472;-123.352;2023-05-12T02:50:27;100581.94;;;18.79;58.26
64551;BME280;50945;44.472;-123.352;2023-05-12T02:52:54;100575.34;;;18.61;58.37
64551;BME280;50945;44.472;-123.352;2023-05-12T02:55:22;100574.59;;;18.54;58.77
64551;BME280;50945;44.472;-123.352;2023-05-12T02:57:48;100582.38;;;18.46;58.86
64551;BME280;50945;44.472;-123.352;2023-05-12T03:00:14;100579.78;;;18.32;58.97
64551;BME280;50945;44.472;-123.352;2023-05-12T03:02:43;100585.84;;;18.22;59.13
64551;BME280;50945;44.472;-123.352;2023-05-12T03:05:09;100587.22;;;18.13;59.27
64551;BME280;50945;44.472;-123.352;2023-05-12T03:07:35;100587.59;;;17.98;59.64
64551;BME280;50945;44.472;-123.352;2023-05-12T03:10:02;100583.19;;;17.91;59.46
64551;BME280;50945;44.472;-123.352;2023-05-12T03:12:28;100593.91;;;17.80;59.67
64551;BME280;50945;44.472;-123.352;2023-05-12T03:14:57;100592.03;;;17.74;60.08
64551;BME280;50945;44.472;-123.352;2023-05-12T03:17:23;100601.69;;;17.65;60.39
64551;BME280;50945;44.472;-123.352;2023-05-12T03:19:49;100603.25;;;17.54;60.73
64551;BME280;50945;44.472;-123.352;2023-05-12T03:22:16;100598.22;;;17.44;60.82
64551;BME280;50945;44.472;-123.352;2023-05-12T03:24:42;100607.06;;;17.28;60.88
64551;BME280;50945;44.472;-123.352;2023-05-12T03:27:10;100604.34;;;17.21;60.94
64551;BME280;50945;44.472;-123.352;2023-05-12T03:29:37;100607.16;;;17.15;61.10
64551;BME280;50945;44.472;-123.352;2023-05-12T03:32:03;100608.03;;;17.08;61.51
64551;BME280;50945;44.472;-123.352;2023-05-12T03:34:29;100600.69;;;16.96;64.48
64551;BME280;50945;44.472;-123.352;2023-05-12T03:36:56;100601.81;;;16.88;61.66
64551;BME280;50945;44.472;-123.352;2023-05-12T03:39:22;100602.22;;;16.78;61.99
64551;BME280;50945;44.472;-123.352;2023-05-12T03:41:50;100607.78;;;16.71;61.74
64551;BME280;50945;44.472;-123.352;2023-05-12T03:44:16;100606.13;;;16.64;62.19
64551;BME280;50945;44.472;-123.352;2023-05-12T03:46:43;100608.69;;;16.52;64.75
64551;BME280;50945;44.472;-123.352;2023-05-12T03:49:09;100606.81;;;16.46;62.50
64551;BME280;50945;44.472;-123.352;2023-05-12T03:51:35;100616.63;;;16.35;62.54
64551;BME280;50945;44.472;-123.352;2023-05-12T03:54:01;100613.88;;;16.22;62.91
64551;BME280;50945;44.472;-123.352;2023-05-12T03:56:27;100617.31;;;16.17;62.96
64551;BME280;50945;44.472;-123.352;2023-05-12T03:58:56;100621.78;;;16.11;63.01
64551;BME280;50945;44.472;-123.352;2023-05-12T04:01:22;100629.63;;;16.01;63.71
64551;BME280;50945;44.472;-123.352;2023-05-12T04:03:48;100629.63;;;15.94;63.54
64551;BME280;50945;44.472;-123.352;2023-05-12T04:06:14;100633.69;;;15.85;64.26
64551;BME280;50945;44.472;-123.352;2023-05-12T04:08:41;100639.78;;;15.74;64.07
64551;BME280;50945;44.472;-123.352;2023-05-12T04:11:07;100641.69;;;15.67;64.08
64551;BME280;50945;44.472;-123.352;2023-05-12T04:13:34;100645.28;;;15.61;64.40
64551;BME280;50945;44.472;-123.352;2023-05-12T04:16:00;100650.38;;;15.50;64.60
64551;BME280;50945;44.472;-123.352;2023-05-12T04:18:27;100649.31;;;15.45;64.58
64551;BME280;50945;44.472;-123.352;2023-05-12T04:20:54;100655.88;;;15.37;64.70
64551;BME280;50945;44.472;-123.352;2023-05-12T04:23:20;100650.97;;;15.26;65.22
64551;BME280;50945;44.472;-123.352;2023-05-12T04:25:48;100661.75;;;15.14;65.64
64551;BME280;50945;44.472;-123.352;2023-05-12T04:28:14;100657.69;;;15.10;65.12
64551;BME280;50945;44.472;-123.352;2023-05-12T04:30:43;100664.88;;;15.04;65.51
64551;BME280;50945;44.472;-123.352;2023-05-12T04:33:10;100672.91;;;14.99;65.63
64551;BME280;50945;44.472;-123.352;2023-05-12T04:35:36;100673.53;;;14.94;65.62
64551;BME280;50945;44.472;-123.352;2023-05-12T04:38:04;100669.47;;;14.90;65.87
64551;BME280;50945;44.472;-123.352;2023-05-12T04:40:31;100671.81;;;14.87;66.15
64551;BME280;50945;44.472;-123.352;2023-05-12T04:42:57;100666.94;;;14.82;66.26
64551;BME280;50945;44.472;-123.352;2023-05-12T04:45:23;100667.72;;;14.76;66.41
64551;BME280;50945;44.472;-123.352;2023-05-12T04:47:51;100673.00;;;14.71;66.29
64551;BME280;50945;44.472;-123.352;2023-05-12T04:50:17;100676.56;;;14.64;66.29
64551;BME280;50945;44.472;-123.352;2023-05-12T04:52:44;100672.06;;;14.57;66.85
64551;BME280;50945;44.472;-123.352;2023-05-12T04:55:11;100675.63;;;14.51;66.62
64551;BME280;50945;44.472;-123.352;2023-05-12T04:57:41;100684.50;;;14.46;67.64
64551;BME280;50945;44.472;-123.352;2023-05-12T05:00:08;100675.13;;;14.40;67.79
64551;BME280;50945;44.472;-123.352;2023-05-12T05:02:34;100679.75;;;14.33;67.86
64551;BME280;50945;44.472;-123.352;2023-05-12T05:05:00;100676.28;;;14.24;69.14
64551;BME280;50945;44.472;-123.352;2023-05-12T05:07:28;100682.41;;;14.20;68.56
64551;BME280;50945;44.472;-123.352;2023-05-12T05:09:54;100688.50;;;14.15;68.50
64551;BME280;50945;44.472;-123.352;2023-05-12T05:12:21;100694.63;;;14.11;68.35
64551;BME280;50945;44.472;-123.352;2023-05-12T05:14:47;100686.13;;;14.05;69.13
64551;BME280;50945;44.472;-123.352;2023-05-12T05:17:13;100691.16;;;14.02;69.08
64551;BME280;50945;44.472;-123.352;2023-05-12T05:19:42;100696.41;;;13.97;69.12
64551;BME280;50945;44.472;-123.352;2023-05-12T05:22:10;100692.34;;;13.93;68.96
64551;BME280;50945;44.472;-123.352;2023-05-12T05:24:36;100690.00;;;13.90;69.53
64551;BME280;50945;44.472;-123.352;2023-05-12T05:27:02;100688.69;;;13.85;69.47
64551;BME280;50945;44.472;-123.352;2023-05-12T05:29:29;100687.38;;;13.81;69.70
64551;BME280;50945;44.472;-123.352;2023-05-12T05:31:55;100692.63;;;13.76;69.69
64551;BME280;50945;44.472;-123.352;2023-05-12T05:34:21;100695.75;;;13.73;70.57
64551;BME280;50945;44.472;-123.352;2023-05-12T05:36:48;100690.69;;;13.70;70.39
64551;BME280;50945;44.472;-123.352;2023-05-12T05:39:14;100682.81;;;13.67;70.50
64551;BME280;50945;44.472;-123.352;2023-05-12T05:41:40;100699.69;;;13.64;70.54
64551;BME280;50945;44.472;-123.352;2023-05-12T05:44:06;100701.97;;;13.60;70.96
64551;BME280;50945;44.472;-123.352;2023-05-12T05:46:32;100699.44;;;13.59;70.63
64551;BME280;50945;44.472;-123.352;2023-05-12T05:48:58;100698.78;;;13.57;70.76
64551;BME280;50945;44.472;-123.352;2023-05-12T05:51:25;100694.94;;;13.51;71.42
64551;BME280;50945;44.472;-123.352;2023-05-12T05:53:52;100697.03;;;13.49;71.17
64551;BME280;50945;44.472;-123.352;2023-05-12T05:56:18;100710.94;;;13.47;71.60
64551;BME280;50945;44.472;-123.352;2023-05-12T05:58:45;100700.34;;;13.44;71.76
64551;BME280;50945;44.472;-123.352;2023-05-12T06:01:11;100701.22;;;13.45;71.72
64551;BME280;50945;44.472;-123.352;2023-05-12T06:03:37;100707.94;;;13.42;71.89
64551;BME280;50945;44.472;-123.352;2023-05-12T06:06:03;100699.88;;;13.41;71.61
64551;BME280;50945;44.472;-123.352;2023-05-12T06:08:30;100712.13;;;13.38;72.01
64551;BME280;50945;44.472;-123.352;2023-05-12T06:10:56;100702.16;;;13.37;71.85
64551;BME280;50945;44.472;-123.352;2023-05-12T06:13:22;100711.34;;;13.29;72.65
64551;BME280;50945;44.472;-123.352;2023-05-12T06:15:48;100701.41;;;13.28;72.91
64551;BME280;50945;44.472;-123.352;2023-05-12T06:18:15;100698.84;;;13.27;72.45
64551;BME280;50945;44.472;-123.352;2023-05-12T06:20:41;100696.50;;;13.24;73.37
64551;BME280;50945;44.472;-123.352;2023-05-12T06:23:08;100703.03;;;13.23;73.19
64551;BME280;50945;44.472;-123.352;2023-05-12T06:25:34;100714.22;;;13.21;73.18
64551;BME280;50945;44.472;-123.352;2023-05-12T06:28:00;100713.38;;;13.21;72.70
64551;BME280;50945;44.472;-123.352;2023-05-12T06:30:26;100711.47;;;13.21;72.66
64551;BME280;50945;44.472;-123.352;2023-05-12T06:32:52;100719.88;;;13.20;72.91
64551;BME280;50945;44.472;-123.352;2023-05-12T06:35:19;100714.63;;;13.18;72.63
64551;BME280;50945;44.472;-123.352;2023-05-12T06:37:45;100711.19;;;13.16;73.21
64551;BME280;50945;44.472;-123.352;2023-05-12T06:40:15;100721.31;;;13.16;73.47
64551;BME280;50945;44.472;-123.352;2023-05-12T06:42:42;100715.00;;;13.15;73.08
64551;BME280;50945;44.472;-123.352;2023-05-12T06:45:09;100722.38;;;13.15;73.16
64551;BME280;50945;44.472;-123.352;2023-05-12T06:47:37;100727.19;;;13.12;73.46
64551;BME280;50945;44.472;-123.352;2023-05-12T06:50:03;100731.00;;;13.11;73.16
64551;BME280;50945;44.472;-123.352;2023-05-12T06:52:29;100735.44;;;13.12;73.57
64551;BME280;50945;44.472;-123.352;2023-05-12T06:54:56;100739.03;;;13.13;73.47
64551;BME280;50945;44.472;-123.352;2023-05-12T06:57:22;100730.06;;;13.04;74.35
64551;BME280;50945;44.472;-123.352;2023-05-12T06:59:48;100727.97;;;12.91;74.85
64551;BME280;50945;44.472;-123.352;2023-05-12T07:02:14;100729.78;;;12.84;75.23
64551;BME280;50945;44.472;-123.352;2023-05-12T07:04:41;100731.41;;;12.79;75.54
64551;BME280;50945;44.472;-123.352;2023-05-12T07:07:07;100728.38;;;12.73;75.80
64551;BME280;50945;44.472;-123.352;2023-05-12T07:09:34;100727.91;;;12.70;76.08
64551;BME280;50945;44.472;-123.352;2023-05-12T07:12:00;100729.16;;;12.67;76.17
64551;BME280;50945;44.472;-123.352;2023-05-12T07:14:26;100725.56;;;12.67;76.05
64551;BME280;50945;44.472;-123.352;2023-05-12T07:16:52;100720.91;;;12.67;76.25
64551;BME280;50945;44.472;-123.352;2023-05-12T07:19:18;100726.59;;;12.66;76.17
64551;BME280;50945;44.472;-123.352;2023-05-12T07:21:45;100734.16;;;12.64;76.13
64551;BME280;50945;44.472;-123.352;2023-05-12T07:24:11;100733.31;;;12.63;76.11
64551;BME280;50945;44.472;-123.352;2023-05-12T07:26:38;100730.59;;;12.63;76.21
64551;BME280;50945;44.472;-123.352;2023-05-12T07:29:04;100739.00;;;12.62;76.12
64551;BME280;50945;44.472;-123.352;2023-05-12T07:31:32;100742.75;;;12.61;76.41
64551;BME280;50945;44.472;-123.352;2023-05-12T07:33:58;100733.88;;;12.59;81.48
64551;BME280;50945;44.472;-123.352;2023-05-12T07:36:24;100744.00;;;12.58;76.83
64551;BME280;50945;44.472;-123.352;2023-05-12T07:38:50;100747.78;;;12.57;76.37
64551;BME280;50945;44.472;-123.352;2023-05-12T07:41:16;100757.91;;;12.57;76.37
64551;BME280;50945;44.472;-123.352;2023-05-12T07:43:43;100755.34;;;12.55;76.35
64551;BME280;50945;44.472;-123.352;2023-05-12T07:46:10;100761.00;;;12.53;76.31
64551;BME280;50945;44.472;-123.352;2023-05-12T07:48:36;100759.09;;;12.54;76.31
64551;BME280;50945;44.472;-123.352;2023-05-12T07:51:07;100768.41;;;12.53;76.09
64551;BME280;50945;44.472;-123.352;2023-05-12T07:53:34;100766.88;;;12.50;76.00
64551;BME280;50945;44.472;-123.352;2023-05-12T07:56:00;100770.84;;;12.48;76.23
64551;BME280;50945;44.472;-123.352;2023-05-12T07:58:26;100777.75;;;12.44;76.56
64551;BME280;50945;44.472;-123.352;2023-05-12T08:00:53;100769.22;;;12.39;76.68
64551;BME280;50945;44.472;-123.352;2023-05-12T08:03:19;100771.69;;;12.33;76.85
64551;BME280;50945;44.472;-123.352;2023-05-12T08:05:45;100770.72;;;12.26;76.76
64551;BME280;50945;44.472;-123.352;2023-05-12T08:08:12;100768.69;;;12.20;76.33
64551;BME280;50945;44.472;-123.352;2023-05-12T08:10:44;100769.81;;;12.11;76.57
64551;BME280;50945;44.472;-123.352;2023-05-12T08:13:10;100774.03;;;11.98;76.72
64551;BME280;50945;44.472;-123.352;2023-05-12T08:15:36;100772.53;;;11.88;76.82
64551;BME280;50945;44.472;-123.352;2023-05-12T08:18:03;100766.94;;;11.81;77.21
64551;BME280;50945;44.472;-123.352;2023-05-12T08:20:29;100780.16;;;11.77;77.39
64551;BME280;50945;44.472;-123.352;2023-05-12T08:22:56;100764.09;;;11.74;77.19
64551;BME280;50945;44.472;-123.352;2023-05-12T08:25:22;100779.66;;;11.74;77.48
64551;BME280;50945;44.472;-123.352;2023-05-12T08:27:49;100770.78;;;11.72;77.04
64551;BME280;50945;44.472;-123.352;2023-05-12T08:30:15;100775.78;;;11.68;77.49
64551;BME280;50945;44.472;-123.352;2023-05-12T08:32:42;100771.88;;;11.63;77.36
64551;BME280;50945;44.472;-123.352;2023-05-12T08:35:08;100776.88;;;11.59;77.58
64551;BME280;50945;44.472;-123.352;2023-05-12T08:37:34;100780.81;;;11.56;77.73
64551;BME280;50945;44.472;-123.352;2023-05-12T08:40:01;100782.03;;;11.54;77.53
64551;BME280;50945;44.472;-123.352;2023-05-12T08:42:43;100783.59;;;11.48;78.49
64551;BME280;50945;44.472;-123.352;2023-05-12T08:45:10;100779.53;;;11.44;78.13
64551;BME280;50945;44.472;-123.352;2023-05-12T08:47:37;100791.00;;;11.39;78.34
64551;BME280;50945;44.472;-123.352;2023-05-12T08:50:04;100788.81;;;11.35;78.31
64551;BME280;50945;44.472;-123.352;2023-05-12T08:52:34;100790.88;;;11.33;78.26
64551;BME280;50945;44.472;-123.352;2023-05-12T08:55:02;100791.22;;;11.30;77.89
64551;BME280;50945;44.472;-123.352;2023-05-12T08:57:29;100788.88;;;11.27;78.20
64551;BME280;50945;44.472;-123.352;2023-05-12T08:59:55;100788.38;;;11.23;83.31
64551;BME280;50945;44.472;-123.352;2023-05-12T09:02:23;100789.75;;;11.19;78.71
64551;BME280;50945;44.472;-123.352;2023-05-12T09:04:50;100788.22;;;11.16;83.24
64551;BME280;50945;44.472;-123.352;2023-05-12T09:07:20;100789.25;;;11.15;78.55
64551;BME280;50945;44.472;-123.352;2023-05-12T09:09:57;100793.69;;;11.16;78.76
64551;BME280;50945;44.472;-123.352;2023-05-12T09:12:24;100792.16;;;11.14;78.36
64551;BME280;50945;44.472;-123.352;2023-05-12T09:15:03;100796.13;;;11.11;78.89
64551;BME280;50945;44.472;-123.352;2023-05-12T09:17:29;100797.34;;;11.09;78.71
64551;BME280;50945;44.472;-123.352;2023-05-12T09:19:56;100800.41;;;11.06;79.07
64551;BME280;50945;44.472;-123.352;2023-05-12T09:22:29;100801.81;;;11.01;79.15
64551;BME280;50945;44.472;-123.352;2023-05-12T09:24:55;100795.84;;;10.98;78.90
64551;BME280;50945;44.472;-123.352;2023-05-12T09:27:28;100796.84;;;10.97;78.97
64551;BME280;50945;44.472;-123.352;2023-05-12T09:29:55;100798.91;;;10.95;79.10
64551;BME280;50945;44.472;-123.352;2023-05-12T09:32:33;100799.94;;;10.94;79.64
64551;BME280;50945;44.472;-123.352;2023-05-12T09:35:07;100808.31;;;10.92;79.61
64551;BME280;50945;44.472;-123.352;2023-05-12T09:37:36;100810.88;;;10.94;78.95
64551;BME280;50945;44.472;-123.352;2023-05-12T09:40:04;100802.16;;;10.90;78.98
64551;BME280;50945;44.472;-123.352;2023-05-12T09:42:32;100805.63;;;10.84;79.22
64551;BME280;50945;44.472;-123.352;2023-05-12T09:45:08;100810.75;;;10.79;80.40
64551;BME280;50945;44.472;-123.352;2023-05-12T09:47:38;100815.56;;;10.77;79.70
64551;BME280;50945;44.472;-123.352;2023-05-12T09:50:05;100821.19;;;10.75;79.95
64551;BME280;50945;44.472;-123.352;2023-05-12T09:52:37;100816.06;;;10.72;80.29
64551;BME280;50945;44.472;-123.352;2023-05-12T09:55:13;100824.44;;;10.71;80.36
64551;BME280;50945;44.472;-123.352;2023-05-12T09:57:41;100822.25;;;10.66;80.28
64551;BME280;50945;44.472;-123.352;2023-05-12T10:00:09;100821.53;;;10.64;80.23
64551;BME280;50945;44.472;-123.352;2023-05-12T10:02:40;100820.19;;;10.60;80.44
64551;BME280;50945;44.472;-123.352;2023-05-12T10:05:19;100824.31;;;10.56;81.47
64551;BME280;50945;44.472;-123.352;2023-05-12T10:07:50;100827.22;;;10.54;80.17
64551;BME280;50945;44.472;-123.352;2023-05-12T10:10:22;100823.47;;;10.47;79.91
64551;BME280;50945;44.472;-123.352;2023-05-12T10:12:48;100823.84;;;10.36;80.67
64551;BME280;50945;44.472;-123.352;2023-05-12T10:15:16;100820.59;;;10.32;81.00
64551;BME280;50945;44.472;-123.352;2023-05-12T10:17:43;100819.34;;;10.26;81.26
64551;BME280;50945;44.472;-123.352;2023-05-12T10:20:12;100828.59;;;10.25;80.54
64551;BME280;50945;44.472;-123.352;2023-05-12T10:22:39;100831.47;;;10.24;81.48
64551;BME280;50945;44.472;-123.352;2023-05-12T10:25:06;100821.72;;;10.21;81.79
64551;BME280;50945;44.472;-123.352;2023-05-12T10:27:36;100812.69;;;10.21;81.54
64551;BME280;50945;44.472;-123.352;2023-05-12T10:30:03;100822.78;;;10.20;81.05
64551;BME280;50945;44.472;-123.352;2023-05-12T10:32:31;100826.50;;;10.19;80.93
64551;BME280;50945;44.472;-123.352;2023-05-12T10:35:10;100825.66;;;10.19;81.70
64551;BME280;50945;44.472;-123.352;2023-05-12T10:37:38;100820.69;;;10.14;80.69
64551;BME280;50945;44.472;-123.352;2023-05-12T10:40:05;100817.47;;;10.11;80.48
64551;BME280;50945;44.472;-123.352;2023-05-12T10:42:40;100826.03;;;10.07;81.05
64551;BME280;50945;44.472;-123.352;2023-05-12T10:45:16;100826.69;;;10.01;81.47
64551;BME280;50945;44.472;-123.352;2023-05-12T10:47:44;100829.75;;;9.98;81.04
64551;BME280;50945;44.472;-123.352;2023-05-12T10:50:12;100824.47;;;9.97;81.30
64551;BME280;50945;44.472;-123.352;2023-05-12T10:52:58;100828.38;;;9.94;82.70
64551;BME280;50945;44.472;-123.352;2023-05-12T10:55:41;100832.16;;;9.93;82.53
64551;BME280;50945;44.472;-123.352;2023-05-12T10:58:11;100828.38;;;9.94;82.15
64551;BME280;50945;44.472;-123.352;2023-05-12T11:00:50;100825.16;;;9.99;82.08
64551;BME280;50945;44.472;-123.352;2023-05-12T11:03:24;100827.00;;;9.98;82.23
64551;BME280;50945;44.472;-123.352;2023-05-12T11:06:03;100831.63;;;9.98;82.20
64551;BME280;50945;44.472;-123.352;2023-05-12T11:08:30;100822.94;;;9.94;81.63
64551;BME280;50945;44.472;-123.352;2023-05-12T11:11:00;100826.84;;;9.92;82.38
64551;BME280;50945;44.472;-123.352;2023-05-12T11:13:28;100821.41;;;9.92;82.45
64551;BME280;50945;44.472;-123.352;2023-05-12T11:15:55;100834.69;;;9.95;82.00
64551;BME280;50945;44.472;-123.352;2023-05-12T11:18:22;100831.97;;;9.95;82.07
64551;BME280;50945;44.472;-123.352;2023-05-12T11:20:49;100827.22;;;9.97;82.28
64551;BME280;50945;44.472;-123.352;2023-05-12T11:23:26;100826.84;;;10.00;82.56
64551;BME280;50945;44.472;-123.352;2023-05-12T11:25:54;100825.84;;;10.01;82.16
64551;BME280;50945;44.472;-123.352;2023-05-12T11:28:20;100822.25;;;10.00;87.86
64551;BME280;50945;44.472;-123.352;2023-05-12T11:30:53;100822.44;;;9.99;89.18
64551;BME280;50945;44.472;-123.352;2023-05-12T11:33:20;100828.06;;;9.97;82.92
64551;BME280;50945;44.472;-123.352;2023-05-12T11:35:49;100821.56;;;9.98;82.76
64551;BME280;50945;44.472;-123.352;2023-05-12T11:38:16;100827.88;;;9.99;88.95
64551;BME280;50945;44.472;-123.352;2023-05-12T11:40:42;100827.88;;;9.99;83.10
64551;BME280;50945;44.472;-123.352;2023-05-12T11:43:10;100827.00;;;9.98;82.45
64551;BME280;50945;44.472;-123.352;2023-05-12T11:45:36;100830.09;;;9.95;82.29
64551;BME280;50945;44.472;-123.352;2023-05-12T11:48:10;100827.72;;;9.92;82.21
64551;BME280;50945;44.472;-123.352;2023-05-12T11:50:38;100828.03;;;9.89;82.71
64551;BME280;50945;44.472;-123.352;2023-05-12T11:53:09;100824.47;;;9.88;82.64
64551;BME280;50945;44.472;-123.352;2023-05-12T11:55:36;100835.38;;;9.88;82.61
64551;BME280;50945;44.472;-123.352;2023-05-12T11:58:03;100827.53;;;9.85;82.82
64551;BME280;50945;44.472;-123.352;2023-05-12T12:00:33;100821.22;;;9.85;82.81
64551;BME280;50945;44.472;-123.352;2023-05-12T12:03:07;100830.25;;;9.85;83.12
64551;BME280;50945;44.472;-123.352;2023-05-12T12:05:34;100831.28;;;9.84;82.35
64551;BME280;50945;44.472;-123.352;2023-05-12T12:08:08;100834.19;;;9.83;82.55
64551;BME280;50945;44.472;-123.352;2023-05-12T12:10:34;100830.56;;;9.82;82.37
64551;BME280;50945;44.472;-123.352;2023-05-12T12:13:01;100821.88;;;9.79;82.82
64551;BME280;50945;44.472;-123.352;2023-05-12T12:15:27;100831.09;;;9.78;83.08
64551;BME280;50945;44.472;-123.352;2023-05-12T12:17:54;100833.16;;;9.76;82.64
64551;BME280;50945;44.472;-123.352;2023-05-12T12:20:20;100838.94;;;9.73;82.73
64551;BME280;50945;44.472;-123.352;2023-05-12T12:22:48;100833.63;;;9.71;83.38